createdAt,value
2017-09-25T00:01:10.589Z,0
2017-09-25T00:02:23.084Z,0
2017-09-25T00:03:35.284Z,0
2017-09-25T00:04:47.473Z,0
2017-09-25T00:05:59.666Z,0
2017-09-25T00:07:12.192Z,0
2017-09-25T00:08:24.064Z,0
2017-09-25T00:09:35.933Z,0
2017-09-25T00:10:48.429Z,0
2017-09-25T00:12:00.599Z,0
2017-09-25T00:13:12.771Z,0
2017-09-25T00:14:25.284Z,0
2017-09-25T00:15:37.163Z,0
2017-09-25T00:16:49.651Z,0
2017-09-25T00:18:01.846Z,0
2017-09-25T00:19:14.025Z,0
2017-09-25T00:20:26.521Z,0
2017-09-25T00:21:39.016Z,0
2017-09-25T00:22:51.563Z,0
2017-09-25T00:24:04.057Z,0
2017-09-25T00:25:16.253Z,0
2017-09-25T00:26:28.449Z,0
2017-09-25T00:27:40.936Z,0
2017-09-25T00:28:53.431Z,0
2017-09-25T00:30:05.937Z,0
2017-09-25T00:31:18.423Z,0
2017-09-25T00:32:30.619Z,0
2017-09-25T00:33:43.121Z,0
2017-09-25T00:34:55.318Z,0
2017-09-25T00:36:07.814Z,0
2017-09-25T00:37:20.309Z,0
2017-09-25T00:38:32.806Z,0
2017-09-25T00:39:45.274Z,0
2017-09-25T00:40:57.763Z,0
2017-09-25T00:42:09.942Z,0
2017-09-25T00:43:21.811Z,0
2017-09-25T00:44:34.025Z,0
2017-09-25T00:45:46.203Z,0
2017-09-25T00:46:58.377Z,0
2017-09-25T00:48:10.570Z,0
2017-09-25T00:49:23.065Z,0
2017-09-25T00:50:35.561Z,0
2017-09-25T00:51:47.438Z,0
2017-09-25T00:52:59.952Z,0
2017-09-25T00:54:12.448Z,0
2017-09-25T00:55:24.319Z,0
2017-09-25T00:56:36.490Z,0
2017-09-25T00:57:48.727Z,0
2017-09-25T00:59:00.905Z,0
2017-09-25T01:00:13.394Z,0
2017-09-25T01:01:25.597Z,0
2017-09-25T01:02:38.092Z,0
2017-09-25T01:03:50.580Z,0
2017-09-25T01:05:02.759Z,0
2017-09-25T01:06:15.247Z,0
2017-09-25T01:07:27.476Z,0
2017-09-25T01:08:39.695Z,0
2017-09-25T01:09:51.570Z,0
2017-09-25T01:11:03.762Z,0
2017-09-25T01:12:16.275Z,0
2017-09-25T01:13:28.753Z,0
2017-09-25T01:14:40.623Z,0
2017-09-25T01:15:53.120Z,0
2017-09-25T01:17:05.015Z,0
2017-09-25T01:18:17.511Z,0
2017-09-25T01:19:29.983Z,0
2017-09-25T01:20:42.477Z,0
2017-09-25T01:21:54.673Z,0
2017-09-25T01:23:06.860Z,0
2017-09-25T01:24:18.739Z,0
2017-09-25T01:25:30.927Z,0
2017-09-25T01:26:43.431Z,0
2017-09-25T01:27:55.601Z,0
2017-09-25T01:29:07.796Z,0
2017-09-25T01:30:19.972Z,0
2017-09-25T01:31:32.155Z,0
2017-09-25T01:32:44.909Z,0
2017-09-25T01:33:57.396Z,0
2017-09-25T01:35:09.901Z,0
2017-09-25T01:36:22.099Z,0
2017-09-25T01:37:34.267Z,0
2017-09-25T01:38:46.154Z,0
2017-09-25T01:39:58.333Z,0
2017-09-25T01:41:10.521Z,0
2017-09-25T01:42:22.998Z,0
2017-09-25T01:43:35.469Z,0
2017-09-25T01:44:47.346Z,0
2017-09-25T01:45:59.510Z,0
2017-09-25T01:47:12.009Z,0
2017-09-25T01:48:24.501Z,0
2017-09-25T01:49:36.700Z,0
2017-09-25T01:50:49.192Z,0
2017-09-25T01:52:01.690Z,0
2017-09-25T01:53:13.878Z,0
2017-09-25T01:54:26.357Z,0
2017-09-25T01:55:38.551Z,0
2017-09-25T01:56:50.739Z,0
2017-09-25T01:58:02.934Z,0
2017-09-25T01:59:15.106Z,0
2017-09-25T02:00:27.608Z,0
2017-09-25T02:01:39.779Z,0
2017-09-25T02:02:51.668Z,0
2017-09-25T02:04:03.888Z,0
2017-09-25T02:05:15.768Z,0
2017-09-25T02:06:27.954Z,0
2017-09-25T02:07:40.474Z,0
2017-09-25T02:08:52.970Z,0
2017-09-25T02:10:04.874Z,0
2017-09-25T02:11:17.369Z,0
2017-09-25T02:12:29.866Z,0
2017-09-25T02:13:42.361Z,0
2017-09-25T02:14:54.860Z,0
2017-09-25T02:16:07.344Z,0
2017-09-25T02:17:18.923Z,0
2017-09-25T02:18:31.098Z,0
2017-09-25T02:19:42.990Z,0
2017-09-25T02:20:55.479Z,0
2017-09-25T02:22:07.656Z,0
2017-09-25T02:23:19.825Z,0
2017-09-25T02:24:32.323Z,0
2017-09-25T02:25:44.492Z,0
2017-09-25T02:26:56.980Z,0
2017-09-25T02:28:09.178Z,0
2017-09-25T02:29:21.672Z,0
2017-09-25T02:30:34.167Z,0
2017-09-25T02:31:46.362Z,0
2017-09-25T02:32:58.558Z,0
2017-09-25T02:34:11.062Z,0
2017-09-25T02:35:23.234Z,0
2017-09-25T02:36:35.429Z,0
2017-09-25T02:37:48.173Z,0
2017-09-25T02:39:00.669Z,0
2017-09-25T02:40:13.169Z,0
2017-09-25T02:41:25.689Z,0
2017-09-25T02:42:38.199Z,0
2017-09-25T02:43:50.701Z,0
2017-09-25T02:45:03.198Z,0
2017-09-25T02:46:15.394Z,0
2017-09-25T02:47:27.881Z,0
2017-09-25T02:48:40.135Z,0
2017-09-25T02:49:52.608Z,0
2017-09-25T02:51:05.126Z,0
2017-09-25T02:52:17.624Z,0
2017-09-25T02:53:30.159Z,0
2017-09-25T02:54:42.656Z,0
2017-09-25T02:55:55.153Z,0
2017-09-25T02:57:07.680Z,0
2017-09-25T02:58:19.867Z,0
2017-09-25T02:59:32.613Z,0
2017-09-25T03:00:45.092Z,0
2017-09-25T03:01:57.280Z,0
2017-09-25T03:03:09.781Z,0
2017-09-25T03:04:21.953Z,0
2017-09-25T03:05:34.475Z,0
2017-09-25T03:06:46.963Z,0
2017-09-25T03:07:59.141Z,0
2017-09-25T03:09:11.336Z,0
2017-09-25T03:10:23.809Z,0
2017-09-25T03:11:36.019Z,0
2017-09-25T03:12:48.522Z,0
2017-09-25T03:14:00.736Z,0
2017-09-25T03:15:12.932Z,0
2017-09-25T03:16:25.427Z,0
2017-09-25T03:17:37.297Z,0
2017-09-25T03:18:49.552Z,0
2017-09-25T03:20:02.025Z,0
2017-09-25T03:21:14.142Z,0
2017-09-25T03:22:26.030Z,0
2017-09-25T03:23:38.226Z,0
2017-09-25T03:24:50.728Z,0
2017-09-25T03:26:03.225Z,0
2017-09-25T03:27:15.395Z,0
2017-09-25T03:28:27.583Z,0
2017-09-25T03:29:40.061Z,0
2017-09-25T03:30:52.560Z,0
2017-09-25T03:32:05.127Z,0
2017-09-25T03:33:17.016Z,0
2017-09-25T03:34:29.520Z,0
2017-09-25T03:35:42.015Z,0
2017-09-25T03:36:54.210Z,0
2017-09-25T03:38:06.706Z,0
2017-09-25T03:39:19.201Z,0
2017-09-25T03:40:31.373Z,0
2017-09-25T03:41:43.561Z,0
2017-09-25T03:42:56.055Z,0
2017-09-25T03:44:07.936Z,0
2017-09-25T03:45:20.430Z,0
2017-09-25T03:46:32.926Z,0
2017-09-25T03:47:45.421Z,0
2017-09-25T03:48:57.917Z,0
2017-09-25T03:50:10.089Z,0
2017-09-25T03:51:22.276Z,0
2017-09-25T03:52:34.480Z,0
2017-09-25T03:53:47.203Z,0
2017-09-25T03:54:59.088Z,0
2017-09-25T03:56:11.284Z,0
2017-09-25T03:57:23.487Z,0
2017-09-25T03:58:36.000Z,0
2017-09-25T03:59:48.180Z,0
2017-09-25T04:01:00.350Z,0
2017-09-25T04:02:12.844Z,0
2017-09-25T04:03:25.032Z,0
2017-09-25T04:04:37.228Z,0
2017-09-25T04:05:49.107Z,0
2017-09-25T04:07:01.604Z,0
2017-09-25T04:08:14.100Z,0
2017-09-25T04:09:26.594Z,0
2017-09-25T04:10:39.090Z,0
2017-09-25T04:11:51.585Z,0
2017-09-25T04:13:03.156Z,0
2017-09-25T04:14:15.332Z,0
2017-09-25T04:15:27.822Z,0
2017-09-25T04:16:40.291Z,0
2017-09-25T04:17:52.164Z,0
2017-09-25T04:19:03.733Z,0
2017-09-25T04:20:15.957Z,0
2017-09-25T04:21:27.852Z,0
2017-09-25T04:22:40.351Z,0
2017-09-25T04:23:52.842Z,0
2017-09-25T04:25:04.737Z,0
2017-09-25T04:26:16.875Z,0
2017-09-25T04:27:29.071Z,4
2017-09-25T04:28:40.965Z,0
2017-09-25T04:29:53.462Z,4
2017-09-25T04:31:05.957Z,4
2017-09-25T04:32:18.436Z,4
2017-09-25T04:33:30.657Z,4
2017-09-25T04:34:43.146Z,4
2017-09-25T04:35:55.324Z,8
2017-09-25T04:37:07.811Z,8
2017-09-25T04:38:19.990Z,8
2017-09-25T04:39:32.160Z,12
2017-09-25T04:40:44.658Z,16
2017-09-25T04:41:57.150Z,20
2017-09-25T04:43:09.339Z,28
2017-09-25T04:44:21.842Z,44
2017-09-25T04:45:34.013Z,52
2017-09-25T04:46:46.508Z,64
2017-09-25T04:47:59.005Z,76
2017-09-25T04:49:11.201Z,84
2017-09-25T04:50:23.396Z,104
2017-09-25T04:51:34.965Z,116
2017-09-25T04:52:47.462Z,128
2017-09-25T04:53:59.957Z,132
2017-09-25T04:55:12.447Z,140
2017-09-25T04:56:24.961Z,144
2017-09-25T04:57:37.144Z,160
2017-09-25T04:58:49.640Z,196
2017-09-25T05:00:01.828Z,224
2017-09-25T05:01:14.306Z,248
2017-09-25T05:02:26.802Z,280
2017-09-25T05:03:38.698Z,332
2017-09-25T05:04:51.194Z,376
2017-09-25T05:06:03.681Z,428
2017-09-25T05:07:16.185Z,480
2017-09-25T05:08:28.705Z,524
2017-09-25T05:09:41.200Z,580
2017-09-25T05:10:53.095Z,624
2017-09-25T05:12:05.284Z,668
2017-09-25T05:13:17.506Z,700
2017-09-25T05:14:29.383Z,716
2017-09-25T05:15:41.578Z,720
2017-09-25T05:16:53.768Z,732
2017-09-25T05:18:06.314Z,744
2017-09-25T05:19:18.491Z,784
2017-09-25T05:20:30.686Z,820
2017-09-25T05:21:43.182Z,908
2017-09-25T05:22:55.358Z,928
2017-09-25T05:24:07.849Z,884
2017-09-25T05:25:20.337Z,788
2017-09-25T05:26:32.815Z,872
2017-09-25T05:27:45.310Z,884
2017-09-25T05:28:57.499Z,896
2017-09-25T05:30:09.377Z,936
2017-09-25T05:31:21.849Z,1020
2017-09-25T05:32:34.336Z,1128
2017-09-25T05:33:46.513Z,1064
2017-09-25T05:34:58.707Z,1176
2017-09-25T05:36:10.597Z,1424
2017-09-25T05:37:22.477Z,1388
2017-09-25T05:38:34.971Z,1268
2017-09-25T05:39:47.463Z,1236
2017-09-25T05:40:59.962Z,1248
2017-09-25T05:42:12.083Z,1340
2017-09-25T05:43:24.597Z,1516
2017-09-25T05:44:37.100Z,1712
2017-09-25T05:45:49.287Z,1792
2017-09-25T05:47:01.491Z,1924
2017-09-25T05:48:13.987Z,1760
2017-09-25T05:49:26.482Z,1696
2017-09-25T05:50:38.978Z,1536
2017-09-25T05:51:51.475Z,1416
2017-09-25T05:53:03.971Z,1332
2017-09-25T05:54:16.464Z,1516
2017-09-25T05:55:28.360Z,1408
2017-09-25T05:56:40.880Z,1460
2017-09-25T05:57:53.051Z,1536
2017-09-25T05:59:05.247Z,1464
2017-09-25T06:00:17.748Z,1536
2017-09-25T06:01:30.256Z,1624
2017-09-25T06:02:42.436Z,1836
2017-09-25T06:03:54.929Z,2152
2017-09-25T06:05:07.126Z,2052
2017-09-25T06:06:19.323Z,1888
2017-09-25T06:07:31.194Z,2228
2017-09-25T06:08:43.375Z,2368
2017-09-25T06:09:55.875Z,2312
2017-09-25T06:11:08.359Z,2644
2017-09-25T06:12:20.850Z,2752
2017-09-25T06:13:33.338Z,2788
2017-09-25T06:14:45.532Z,2916
2017-09-25T06:15:58.028Z,3056
2017-09-25T06:17:10.224Z,3604
2017-09-25T06:18:22.742Z,3652
2017-09-25T06:19:35.265Z,3792
2017-09-25T06:20:47.461Z,3720
2017-09-25T06:21:59.957Z,3636
2017-09-25T06:23:11.836Z,4112
2017-09-25T06:24:24.023Z,3736
2017-09-25T06:25:35.846Z,3868
2017-09-25T06:26:48.048Z,4224
2017-09-25T06:28:00.246Z,4020
2017-09-25T06:29:12.441Z,3536
2017-09-25T06:30:24.376Z,3396
2017-09-25T06:31:36.548Z,2992
2017-09-25T06:32:48.750Z,2920
2017-09-25T06:34:01.245Z,3360
2017-09-25T06:35:13.444Z,3908
2017-09-25T06:36:25.638Z,4312
2017-09-25T06:37:37.825Z,4552
2017-09-25T06:38:50.028Z,4772
2017-09-25T06:40:02.524Z,5508
2017-09-25T06:41:14.412Z,5952
2017-09-25T06:42:26.591Z,7256
2017-09-25T06:43:39.079Z,7584
2017-09-25T06:44:51.581Z,7976
2017-09-25T06:46:03.453Z,8372
2017-09-25T06:47:15.942Z,7812
2017-09-25T06:48:28.144Z,6748
2017-09-25T06:49:40.619Z,7156
2017-09-25T06:50:53.110Z,6840
2017-09-25T06:52:05.305Z,5936
2017-09-25T06:53:17.802Z,5480
2017-09-25T06:54:30.290Z,5744
2017-09-25T06:55:42.793Z,6412
2017-09-25T06:56:54.963Z,6544
2017-09-25T06:58:07.159Z,5496
2017-09-25T06:59:19.354Z,5236
2017-09-25T07:00:31.851Z,4516
2017-09-25T07:01:44.021Z,3596
2017-09-25T07:02:56.524Z,4404
2017-09-25T07:04:09.013Z,4664
2017-09-25T07:05:21.502Z,4128
2017-09-25T07:06:33.700Z,4212
2017-09-25T07:07:46.199Z,5176
2017-09-25T07:08:58.696Z,6440
2017-09-25T07:10:11.191Z,6724
2017-09-25T07:11:23.387Z,6004
2017-09-25T07:12:35.592Z,6352
2017-09-25T07:13:47.778Z,6408
2017-09-25T07:15:00.274Z,7200
2017-09-25T07:16:12.468Z,5392
2017-09-25T07:17:24.365Z,5860
2017-09-25T07:18:36.852Z,5024
2017-09-25T07:19:48.981Z,5300
2017-09-25T07:21:01.177Z,4176
2017-09-25T07:22:13.054Z,4344
2017-09-25T07:23:24.960Z,4636
2017-09-25T07:24:37.165Z,4492
2017-09-25T07:25:49.660Z,4832
2017-09-25T07:27:02.147Z,4700
2017-09-25T07:28:14.643Z,5820
2017-09-25T07:29:27.153Z,5420
2017-09-25T07:30:39.666Z,4752
2017-09-25T07:31:51.865Z,5552
2017-09-25T07:33:04.357Z,4864
2017-09-25T07:34:16.554Z,4524
2017-09-25T07:35:28.749Z,4228
2017-09-25T07:36:41.247Z,4264
2017-09-25T07:37:53.444Z,4080
2017-09-25T07:39:05.628Z,3540
2017-09-25T07:40:18.124Z,3120
2017-09-25T07:41:30.620Z,2784
2017-09-25T07:42:42.815Z,2700
2017-09-25T07:43:55.011Z,2900
2017-09-25T07:45:07.506Z,3244
2017-09-25T07:46:20.010Z,3516
2017-09-25T07:47:32.198Z,3812
2017-09-25T07:48:44.100Z,4120
2017-09-25T07:49:56.296Z,3596
2017-09-25T07:51:08.193Z,4136
2017-09-25T07:52:20.364Z,4144
2017-09-25T07:53:32.551Z,4104
2017-09-25T07:54:44.732Z,4036
2017-09-25T07:55:56.928Z,4036
2017-09-25T07:57:09.422Z,4164
2017-09-25T07:58:21.935Z,4928
2017-09-25T07:59:34.138Z,5572
2017-09-25T08:00:46.624Z,5636
2017-09-25T08:01:59.128Z,5568
2017-09-25T08:03:11.267Z,5616
2017-09-25T08:04:23.469Z,5440
2017-09-25T08:05:35.965Z,6416
2017-09-25T08:06:47.585Z,5548
2017-09-25T08:07:59.782Z,4688
2017-09-25T08:09:12.277Z,4660
2017-09-25T08:10:24.765Z,5488
2017-09-25T08:11:37.268Z,9992
2017-09-25T08:12:49.463Z,9292
2017-09-25T08:14:01.335Z,9244
2017-09-25T08:15:13.822Z,10276
2017-09-25T08:16:25.718Z,9572
2017-09-25T08:17:38.222Z,8800
2017-09-25T08:18:50.417Z,7532
2017-09-25T08:20:02.588Z,9092
2017-09-25T08:21:14.776Z,14092
2017-09-25T08:22:27.278Z,14060
2017-09-25T08:23:39.452Z,11432
2017-09-25T08:24:51.637Z,11376
2017-09-25T08:26:04.133Z,11328
2017-09-25T08:27:16.312Z,12128
2017-09-25T08:28:28.184Z,14984
2017-09-25T08:29:40.677Z,11032
2017-09-25T08:30:52.867Z,6664
2017-09-25T08:32:05.070Z,5364
2017-09-25T08:33:16.640Z,6656
2017-09-25T08:34:28.838Z,4820
2017-09-25T08:35:40.731Z,5396
2017-09-25T08:36:53.227Z,4588
2017-09-25T08:38:05.722Z,3380
2017-09-25T08:39:18.260Z,3188
2017-09-25T08:40:29.856Z,3972
2017-09-25T08:41:41.736Z,4060
2017-09-25T08:42:54.235Z,3468
2017-09-25T08:44:06.726Z,3992
2017-09-25T08:45:18.621Z,4168
2017-09-25T08:46:30.809Z,5396
2017-09-25T08:47:42.389Z,6472
2017-09-25T08:48:54.927Z,6936
2017-09-25T08:50:06.504Z,6792
2017-09-25T08:51:18.700Z,7568
2017-09-25T08:52:30.595Z,7752
2017-09-25T08:53:42.791Z,7616
2017-09-25T08:54:55.286Z,8212
2017-09-25T08:56:07.459Z,5976
2017-09-25T08:57:19.653Z,5676
2017-09-25T08:58:31.540Z,5924
2017-09-25T08:59:43.437Z,6088
2017-09-25T09:00:55.940Z,6412
2017-09-25T09:02:08.136Z,5932
2017-09-25T09:03:20.325Z,5904
2017-09-25T09:04:32.828Z,6088
2017-09-25T09:05:45.023Z,6840
2017-09-25T09:06:57.219Z,6312
2017-09-25T09:08:09.414Z,6952
2017-09-25T09:09:21.284Z,7280
2017-09-25T09:10:33.781Z,7288
2017-09-25T09:11:46.277Z,8016
2017-09-25T09:12:58.471Z,8552
2017-09-25T09:14:10.960Z,7916
2017-09-25T09:15:23.163Z,7388
2017-09-25T09:16:35.350Z,6468
2017-09-25T09:17:47.846Z,6912
2017-09-25T09:19:00.281Z,8188
2017-09-25T09:20:12.471Z,8196
2017-09-25T09:21:24.965Z,7256
2017-09-25T09:22:36.837Z,6308
2017-09-25T09:23:48.725Z,6428
2017-09-25T09:25:00.904Z,8256
2017-09-25T09:26:12.802Z,8296
2017-09-25T09:27:24.970Z,8284
2017-09-25T09:28:37.456Z,8052
2017-09-25T09:29:49.660Z,7528
2017-09-25T09:31:02.157Z,6676
2017-09-25T09:32:14.672Z,6164
2017-09-25T09:33:27.172Z,5892
2017-09-25T09:34:39.669Z,6220
2017-09-25T09:35:51.867Z,7464
2017-09-25T09:37:04.060Z,7500
2017-09-25T09:38:16.556Z,6824
2017-09-25T09:39:29.051Z,5392
2017-09-25T09:40:41.547Z,5880
2017-09-25T09:41:54.043Z,6776
2017-09-25T09:43:05.617Z,7988
2017-09-25T09:44:17.800Z,8568
2017-09-25T09:45:30.305Z,9312
2017-09-25T09:46:42.502Z,9568
2017-09-25T09:47:54.996Z,10208
2017-09-25T09:49:06.884Z,9612
2017-09-25T09:50:19.379Z,8640
2017-09-25T09:51:31.560Z,9988
2017-09-25T09:52:43.455Z,10608
2017-09-25T09:53:55.949Z,9756
2017-09-25T09:55:07.820Z,9288
2017-09-25T09:56:20.007Z,7660
2017-09-25T09:57:32.511Z,7108
2017-09-25T09:58:44.999Z,7884
2017-09-25T09:59:57.495Z,8824
2017-09-25T10:01:09.699Z,8728
2017-09-25T10:02:21.586Z,8972
2017-09-25T10:03:34.089Z,8668
2017-09-25T10:04:46.588Z,8308
2017-09-25T10:05:59.081Z,8344
2017-09-25T10:07:11.276Z,8732
2017-09-25T10:08:22.873Z,8212
2017-09-25T10:09:34.745Z,9048
2017-09-25T10:10:47.238Z,8848
2017-09-25T10:11:59.435Z,8628
2017-09-25T10:13:11.929Z,7996
2017-09-25T10:14:23.826Z,7180
2017-09-25T10:15:36.000Z,6532
2017-09-25T10:16:48.497Z,5892
2017-09-25T10:18:00.988Z,5508
2017-09-25T10:19:13.201Z,5608
2017-09-25T10:20:25.707Z,5676
2017-09-25T10:21:36.973Z,5700
2017-09-25T10:22:49.471Z,6508
2017-09-25T10:24:01.966Z,8092
2017-09-25T10:25:14.162Z,7912
2017-09-25T10:26:26.356Z,6748
2017-09-25T10:27:38.553Z,5776
2017-09-25T10:28:51.049Z,5728
2017-09-25T10:30:03.237Z,5292
2017-09-25T10:31:15.741Z,5960
2017-09-25T10:32:27.928Z,6256
2017-09-25T10:33:40.107Z,7200
2017-09-25T10:34:52.602Z,8668
2017-09-25T10:36:05.100Z,9132
2017-09-25T10:37:16.668Z,8768
2017-09-25T10:38:28.844Z,9168
2017-09-25T10:39:41.027Z,9304
2017-09-25T10:40:53.522Z,9352
2017-09-25T10:42:05.718Z,9372
2017-09-25T10:43:18.221Z,9148
2017-09-25T10:44:30.718Z,9052
2017-09-25T10:45:43.212Z,9176
2017-09-25T10:46:55.710Z,9572
2017-09-25T10:48:08.205Z,9900
2017-09-25T10:49:20.700Z,10352
2017-09-25T10:50:33.200Z,11044
2017-09-25T10:51:45.692Z,11652
2017-09-25T10:52:57.861Z,12308
2017-09-25T10:54:10.350Z,13092
2017-09-25T10:55:22.253Z,13804
2017-09-25T10:56:34.448Z,14304
2017-09-25T10:57:46.045Z,14572
2017-09-25T10:58:58.539Z,15504
2017-09-25T11:00:10.736Z,16368
2017-09-25T11:01:22.012Z,16916
2017-09-25T11:02:34.520Z,16608
2017-09-25T11:03:46.099Z,15436
2017-09-25T11:04:57.993Z,13968
2017-09-25T11:06:09.582Z,14700
2017-09-25T11:07:21.784Z,16656
2017-09-25T11:08:33.973Z,15852
2017-09-25T11:09:46.177Z,11920
2017-09-25T11:10:58.672Z,10400
2017-09-25T11:12:10.242Z,8660
2017-09-25T11:13:22.414Z,6744
2017-09-25T11:14:34.302Z,5076
2017-09-25T11:15:46.482Z,4532
2017-09-25T11:16:58.667Z,5912
2017-09-25T11:18:10.246Z,6180
2017-09-25T11:19:22.142Z,5616
2017-09-25T11:20:34.055Z,4704
2017-09-25T11:21:46.565Z,4084
2017-09-25T11:22:59.072Z,5408
2017-09-25T11:24:11.278Z,8804
2017-09-25T11:25:23.476Z,11196
2017-09-25T11:26:35.966Z,12160
2017-09-25T11:27:48.454Z,12432
2017-09-25T11:29:00.650Z,14324
2017-09-25T11:30:13.182Z,15236
2017-09-25T11:31:25.074Z,14320
2017-09-25T11:32:37.595Z,20544
2017-09-25T11:33:49.765Z,27968
2017-09-25T11:35:01.961Z,29792
2017-09-25T11:36:14.157Z,28544
2017-09-25T11:37:26.651Z,25664
2017-09-25T11:38:38.847Z,21120
2017-09-25T11:39:51.592Z,18592
2017-09-25T11:41:03.489Z,18240
2017-09-25T11:42:15.985Z,19552
2017-09-25T11:43:28.475Z,20576
2017-09-25T11:44:40.976Z,20352
2017-09-25T11:45:53.164Z,21376
2017-09-25T11:47:05.360Z,22560
2017-09-25T11:48:17.539Z,21952
2017-09-25T11:49:29.135Z,20256
2017-09-25T11:50:41.380Z,21056
2017-09-25T11:51:53.875Z,21984
2017-09-25T11:53:06.362Z,19712
2017-09-25T11:54:18.858Z,17136
2017-09-25T11:55:31.061Z,18496
2017-09-25T11:56:43.557Z,19744
2017-09-25T11:57:56.053Z,21760
2017-09-25T11:59:08.574Z,20448
2017-09-25T12:00:21.069Z,22400
2017-09-25T12:01:33.307Z,24000
2017-09-25T12:02:45.812Z,22560
2017-09-25T12:03:57.698Z,20448
2017-09-25T12:05:10.195Z,18208
2017-09-25T12:06:22.098Z,15380
2017-09-25T12:07:33.985Z,18784
2017-09-25T12:08:45.888Z,16084
2017-09-25T12:09:58.078Z,13268
2017-09-25T12:11:10.278Z,12988
2017-09-25T12:12:22.468Z,18848
2017-09-25T12:13:34.646Z,22688
2017-09-25T12:14:46.543Z,24480
2017-09-25T12:15:58.720Z,28864
2017-09-25T12:17:11.226Z,25280
2017-09-25T12:18:23.430Z,19552
2017-09-25T12:19:35.626Z,11796
2017-09-25T12:20:48.114Z,5256
2017-09-25T12:22:00.017Z,3484
2017-09-25T12:23:12.187Z,3316
2017-09-25T12:24:24.108Z,3188
2017-09-25T12:25:36.595Z,4316
2017-09-25T12:26:48.491Z,7900
2017-09-25T12:28:01.000Z,7244
2017-09-25T12:29:13.515Z,6220
2017-09-25T12:30:25.729Z,6528
2017-09-25T12:31:37.924Z,5752
2017-09-25T12:32:49.503Z,5456
2017-09-25T12:34:01.691Z,4896
2017-09-25T12:35:13.570Z,5164
2017-09-25T12:36:25.764Z,4876
2017-09-25T12:37:38.252Z,4068
2017-09-25T12:38:50.456Z,3672
2017-09-25T12:40:02.955Z,4972
2017-09-25T12:41:14.846Z,5388
2017-09-25T12:42:27.042Z,5424
2017-09-25T12:43:39.238Z,6604
2017-09-25T12:44:51.734Z,7152
2017-09-25T12:46:04.229Z,7240
2017-09-25T12:47:16.427Z,6508
2017-09-25T12:48:28.620Z,6140
2017-09-25T12:49:40.859Z,6448
2017-09-25T12:50:53.355Z,7372
2017-09-25T12:52:05.249Z,8588
2017-09-25T12:53:17.153Z,10472
2017-09-25T12:54:29.025Z,11564
2017-09-25T12:55:41.197Z,13084
2017-09-25T12:56:53.666Z,13196
2017-09-25T12:58:06.160Z,13288
2017-09-25T12:59:17.732Z,13232
2017-09-25T13:00:29.609Z,12692
2017-09-25T13:01:42.123Z,11140
2017-09-25T13:02:54.320Z,8792
2017-09-25T13:04:06.815Z,6984
2017-09-25T13:05:18.684Z,5364
2017-09-25T13:06:30.860Z,4668
2017-09-25T13:07:43.050Z,4372
2017-09-25T13:08:55.547Z,4604
2017-09-25T13:10:08.043Z,5100
2017-09-25T13:11:20.238Z,4976
2017-09-25T13:12:32.733Z,3896
2017-09-25T13:13:44.606Z,2984
2017-09-25T13:14:57.117Z,2712
2017-09-25T13:16:09.012Z,2684
2017-09-25T13:17:21.533Z,2504
2017-09-25T13:18:34.037Z,2352
2017-09-25T13:19:45.624Z,2428
2017-09-25T13:20:57.821Z,3024
2017-09-25T13:22:10.004Z,3452
2017-09-25T13:23:21.898Z,3040
2017-09-25T13:24:34.090Z,3220
2017-09-25T13:25:46.286Z,3944
2017-09-25T13:26:58.483Z,4344
2017-09-25T13:28:10.978Z,3720
2017-09-25T13:29:22.850Z,3452
2017-09-25T13:30:35.348Z,3168
2017-09-25T13:31:47.539Z,2920
2017-09-25T13:33:00.035Z,2960
2017-09-25T13:34:12.233Z,3188
2017-09-25T13:35:24.401Z,3212
2017-09-25T13:36:36.872Z,3656
2017-09-25T13:37:48.759Z,4060
2017-09-25T13:39:00.962Z,4308
2017-09-25T13:40:13.459Z,4272
2017-09-25T13:41:25.346Z,4640
2017-09-25T13:42:37.551Z,4804
2017-09-25T13:43:50.047Z,6328
2017-09-25T13:45:02.241Z,6140
2017-09-25T13:46:13.837Z,6752
2017-09-25T13:47:26.335Z,6644
2017-09-25T13:48:38.834Z,7220
2017-09-25T13:49:51.341Z,7436
2017-09-25T13:51:03.545Z,6640
2017-09-25T13:52:15.740Z,7096
2017-09-25T13:53:28.237Z,7428
2017-09-25T13:54:40.432Z,7840
2017-09-25T13:55:52.929Z,7848
2017-09-25T13:57:05.414Z,7812
2017-09-25T13:58:17.899Z,8116
2017-09-25T14:03:27.600Z,8272
2017-09-25T14:04:39.794Z,8080
2017-09-25T14:05:51.690Z,8008
2017-09-25T14:07:04.179Z,8148
2017-09-25T14:08:16.681Z,8312
2017-09-25T14:09:28.270Z,8528
2017-09-25T14:10:40.780Z,8744
2017-09-25T14:11:53.270Z,8980
2017-09-25T14:13:05.765Z,9088
2017-09-25T14:14:17.654Z,9064
2017-09-25T14:15:29.556Z,8688
2017-09-25T14:16:42.052Z,8256
2017-09-25T14:17:54.239Z,8188
2017-09-25T14:19:06.435Z,8256
2017-09-25T14:20:18.640Z,8060
2017-09-25T14:21:31.133Z,7724
2017-09-25T14:22:43.330Z,7196
2017-09-25T14:23:54.926Z,6532
2017-09-25T14:25:07.121Z,5896
2017-09-25T14:26:19.309Z,6676
2017-09-25T14:27:31.513Z,7352
2017-09-25T14:28:43.707Z,6992
2017-09-25T14:29:55.896Z,6748
2017-09-25T14:31:07.800Z,7200
2017-09-25T14:32:19.694Z,7004
2017-09-25T14:33:32.195Z,6688
2017-09-25T14:34:44.679Z,7788
2017-09-25T14:35:57.183Z,8648
2017-09-25T14:37:09.378Z,8740
2017-09-25T14:38:21.251Z,8728
2017-09-25T14:39:33.746Z,8832
2017-09-25T14:40:45.939Z,9304
2017-09-25T14:41:57.834Z,9740
2017-09-25T14:43:10.331Z,9900
2017-09-25T14:44:22.831Z,10044
2017-09-25T14:45:35.323Z,9816
2017-09-25T14:46:47.209Z,9624
2017-09-25T14:47:59.738Z,9568
2017-09-25T14:49:12.234Z,9160
2017-09-25T14:50:24.432Z,8756
2017-09-25T14:51:36.303Z,8716
2017-09-25T14:52:48.795Z,8932
2017-09-25T14:54:01.292Z,8560
2017-09-25T14:55:12.888Z,8240
2017-09-25T14:56:25.382Z,7832
2017-09-25T14:57:37.256Z,7692
2017-09-25T14:58:49.442Z,7684
2017-09-25T15:00:01.946Z,7432
2017-09-25T15:01:14.441Z,7224
2017-09-25T15:02:26.937Z,6660
2017-09-25T15:03:39.432Z,6240
2017-09-25T15:04:51.620Z,5560
2017-09-25T15:06:04.124Z,4724
2017-09-25T15:07:16.611Z,3812
2017-09-25T15:08:28.517Z,3476
2017-09-25T15:09:40.385Z,3492
2017-09-25T15:10:52.881Z,3516
2017-09-25T15:12:05.077Z,3412
2017-09-25T15:13:16.973Z,2972
2017-09-25T15:14:28.248Z,2532
2017-09-25T15:15:40.764Z,2424
2017-09-25T15:16:52.935Z,2204
2017-09-25T15:18:05.429Z,1664
2017-09-25T15:19:17.929Z,1464
2017-09-25T15:20:29.801Z,1192
2017-09-25T15:21:41.992Z,868
2017-09-25T15:22:54.187Z,880
2017-09-25T15:24:06.675Z,1036
2017-09-25T15:25:18.232Z,1488
2017-09-25T15:26:30.724Z,1904
2017-09-25T15:27:42.612Z,1784
2017-09-25T15:28:54.483Z,1612
2017-09-25T15:30:06.362Z,1600
2017-09-25T15:31:18.557Z,1448
2017-09-25T15:32:31.031Z,1212
2017-09-25T15:33:42.940Z,1228
2017-09-25T15:34:55.144Z,1344
2017-09-25T15:36:07.643Z,1208
2017-09-25T15:37:19.513Z,1180
2017-09-25T15:38:31.698Z,1164
2017-09-25T15:39:44.194Z,1296
2017-09-25T15:40:56.390Z,1856
2017-09-25T15:42:08.285Z,2428
2017-09-25T15:43:20.164Z,2748
2017-09-25T15:44:32.659Z,2756
2017-09-25T15:45:44.847Z,2716
2017-09-25T15:46:57.350Z,2476
2017-09-25T15:48:09.538Z,2400
2017-09-25T15:49:21.117Z,2336
2017-09-25T15:50:33.605Z,2660
2017-09-25T15:51:46.107Z,2916
2017-09-25T15:52:58.620Z,3164
2017-09-25T15:54:10.800Z,2972
2017-09-25T15:55:22.989Z,2704
2017-09-25T15:56:35.171Z,3076
2017-09-25T15:57:47.354Z,3164
2017-09-25T15:58:59.231Z,3124
2017-09-25T16:00:11.403Z,3076
2017-09-25T16:01:23.597Z,2984
2017-09-25T16:02:35.486Z,2968
2017-09-25T16:03:47.965Z,3060
2017-09-25T16:05:00.163Z,3084
2017-09-25T16:06:12.661Z,3020
2017-09-25T16:07:24.869Z,2876
2017-09-25T16:08:36.764Z,2748
2017-09-25T16:09:49.244Z,2636
2017-09-25T16:11:01.442Z,2520
2017-09-25T16:12:13.933Z,2416
2017-09-25T16:13:26.404Z,2300
2017-09-25T16:14:38.893Z,2184
2017-09-25T16:15:50.764Z,2100
2017-09-25T16:17:03.267Z,2000
2017-09-25T16:18:15.155Z,1908
2017-09-25T16:19:27.659Z,1840
2017-09-25T16:20:38.948Z,1772
2017-09-25T16:21:51.375Z,1680
2017-09-25T16:23:03.870Z,1596
2017-09-25T16:24:15.767Z,1720
2017-09-25T16:25:28.262Z,1764
2017-09-25T16:26:40.757Z,1692
2017-09-25T16:27:52.945Z,1588
2017-09-25T16:29:05.448Z,1504
2017-09-25T16:30:17.935Z,1408
2017-09-25T16:31:30.132Z,1304
2017-09-25T16:32:42.627Z,1244